sensor_id;sensor_type;location;lat;lon;timestamp;temperature;humidity
7384;DHT22;3733;47.994;8.820;2023-12-20T00:02:11;3.60;99.90
7384;DHT22;3733;47.994;8.820;2023-12-20T00:04:37;3.60;99.90
7384;DHT22;3733;47.994;8.820;2023-12-20T00:07:02;3.60;99.90
7384;DHT22;3733;47.994;8.820;2023-12-20T00:09:28;3.60;99.90
7384;DHT22;3733;47.994;8.820;2023-12-20T00:11:54;3.50;99.90
7384;DHT22;3733;47.994;8.820;2023-12-20T00:14:19;3.50;99.90
7384;DHT22;3733;47.994;8.820;2023-12-20T00:16:45;3.50;99.90
7384;DHT22;3733;47.994;8.820;2023-12-20T00:19:11;3.60;99.90
7384;DHT22;3733;47.994;8.820;2023-12-20T00:21:36;3.60;99.90
7384;DHT22;3733;47.994;8.820;2023-12-20T00:24:02;3.60;99.90
7384;DHT22;3733;47.994;8.820;2023-12-20T00:26:28;3.60;99.90
7384;DHT22;3733;47.994;8.820;2023-12-20T00:28:53;3.60;99.90
7384;DHT22;3733;47.994;8.820;2023-12-20T00:31:19;3.60;99.90
7384;DHT22;3733;47.994;8.820;2023-12-20T00:33:44;3.60;99.90
7384;DHT22;3733;47.994;8.820;2023-12-20T00:36:12;3.60;99.90
7384;DHT22;3733;47.994;8.820;2023-12-20T00:38:38;3.60;99.90
7384;DHT22;3733;47.994;8.820;2023-12-20T00:41:03;3.60;99.90
7384;DHT22;3733;47.994;8.820;2023-12-20T00:43:29;3.70;99.90
7384;DHT22;3733;47.994;8.820;2023-12-20T00:45:54;3.60;99.90
7384;DHT22;3733;47.994;8.820;2023-12-20T00:48:21;3.70;99.90
7384;DHT22;3733;47.994;8.820;2023-12-20T00:50:46;3.70;99.90
7384;DHT22;3733;47.994;8.820;2023-12-20T00:53:12;3.70;99.90
7384;DHT22;3733;47.994;8.820;2023-12-20T00:55:37;3.70;99.90
7384;DHT22;3733;47.994;8.820;2023-12-20T00:58:03;3.70;99.90
7384;DHT22;3733;47.994;8.820;2023-12-20T01:00:29;3.70;99.90
7384;DHT22;3733;47.994;8.820;2023-12-20T01:02:54;3.70;99.90
7384;DHT22;3733;47.994;8.820;2023-12-20T01:05:20;3.70;99.90
7384;DHT22;3733;47.994;8.820;2023-12-20T01:07:48;3.70;99.90
7384;DHT22;3733;47.994;8.820;2023-12-20T01:10:14;3.70;99.90
7384;DHT22;3733;47.994;8.820;2023-12-20T01:12:40;3.70;99.90
7384;DHT22;3733;47.994;8.820;2023-12-20T01:15:06;3.70;99.90
7384;DHT22;3733;47.994;8.820;2023-12-20T01:17:31;3.80;99.90
7384;DHT22;3733;47.994;8.820;2023-12-20T01:19:57;3.80;99.90
7384;DHT22;3733;47.994;8.820;2023-12-20T01:22:23;3.80;99.90
7384;DHT22;3733;47.994;8.820;2023-12-20T01:24:49;3.80;99.90
7384;DHT22;3733;47.994;8.820;2023-12-20T01:27:14;3.90;99.90
7384;DHT22;3733;47.994;8.820;2023-12-20T01:29:40;3.90;99.90
7384;DHT22;3733;47.994;8.820;2023-12-20T01:32:06;3.90;99.90
7384;DHT22;3733;47.994;8.820;2023-12-20T01:34:32;3.90;99.90
7384;DHT22;3733;47.994;8.820;2023-12-20T01:36:57;3.90;99.90
7384;DHT22;3733;47.994;8.820;2023-12-20T01:39:23;3.90;99.90
7384;DHT22;3733;47.994;8.820;2023-12-20T01:41:48;3.90;99.90
7384;DHT22;3733;47.994;8.820;2023-12-20T01:44:14;4.00;99.90
7384;DHT22;3733;47.994;8.820;2023-12-20T01:46:40;4.00;99.90
7384;DHT22;3733;47.994;8.820;2023-12-20T01:49:06;4.00;99.90
7384;DHT22;3733;47.994;8.820;2023-12-20T01:51:33;4.00;99.90
7384;DHT22;3733;47.994;8.820;2023-12-20T01:53:59;4.00;99.90
7384;DHT22;3733;47.994;8.820;2023-12-20T01:56:29;4.00;99.90
7384;DHT22;3733;47.994;8.820;2023-12-20T01:58:55;4.00;99.90
7384;DHT22;3733;47.994;8.820;2023-12-20T02:01:21;4.10;99.90
7384;DHT22;3733;47.994;8.820;2023-12-20T02:03:47;4.00;99.90
7384;DHT22;3733;47.994;8.820;2023-12-20T02:06:13;4.10;99.90
7384;DHT22;3733;47.994;8.820;2023-12-20T02:08:39;4.10;99.90
7384;DHT22;3733;47.994;8.820;2023-12-20T02:11:04;4.10;99.90
7384;DHT22;3733;47.994;8.820;2023-12-20T02:13:31;4.10;99.90
7384;DHT22;3733;47.994;8.820;2023-12-20T02:15:56;4.10;99.90
7384;DHT22;3733;47.994;8.820;2023-12-20T02:18:22;4.10;99.90
7384;DHT22;3733;47.994;8.820;2023-12-20T02:20:48;4.10;99.90
7384;DHT22;3733;47.994;8.820;2023-12-20T02:23:14;4.10;99.90
7384;DHT22;3733;47.994;8.820;2023-12-20T02:25:39;4.10;99.90
7384;DHT22;3733;47.994;8.820;2023-12-20T02:28:05;4.10;99.90
7384;DHT22;3733;47.994;8.820;2023-12-20T02:30:31;4.10;99.90
7384;DHT22;3733;47.994;8.820;2023-12-20T02:32:57;4.20;99.90
7384;DHT22;3733;47.994;8.820;2023-12-20T02:35:25;4.20;99.90
7384;DHT22;3733;47.994;8.820;2023-12-20T02:37:50;4.20;99.90
7384;DHT22;3733;47.994;8.820;2023-12-20T02:40:16;4.20;99.90
7384;DHT22;3733;47.994;8.820;2023-12-20T02:42:41;4.20;99.90
7384;DHT22;3733;47.994;8.820;2023-12-20T02:45:07;4.30;99.90
7384;DHT22;3733;47.994;8.820;2023-12-20T02:47:33;4.30;99.90
7384;DHT22;3733;47.994;8.820;2023-12-20T02:49:59;4.30;99.90
7384;DHT22;3733;47.994;8.820;2023-12-20T02:52:25;4.30;99.90
7384;DHT22;3733;47.994;8.820;2023-12-20T02:54:51;4.30;99.90
7384;DHT22;3733;47.994;8.820;2023-12-20T02:57:16;4.30;99.90
7384;DHT22;3733;47.994;8.820;2023-12-20T02:59:42;4.30;99.90
7384;DHT22;3733;47.994;8.820;2023-12-20T03:02:08;4.30;99.90
7384;DHT22;3733;47.994;8.820;2023-12-20T03:04:33;4.30;99.90
7384;DHT22;3733;47.994;8.820;2023-12-20T03:06:59;4.30;99.90
7384;DHT22;3733;47.994;8.820;2023-12-20T03:09:24;4.30;99.90
7384;DHT22;3733;47.994;8.820;2023-12-20T03:11:50;4.30;99.90
7384;DHT22;3733;47.994;8.820;2023-12-20T03:14:15;4.30;99.90
7384;DHT22;3733;47.994;8.820;2023-12-20T03:16:41;4.30;99.90
7384;DHT22;3733;47.994;8.820;2023-12-20T03:19:07;4.30;99.90
7384;DHT22;3733;47.994;8.820;2023-12-20T03:21:32;4.30;99.90
7384;DHT22;3733;47.994;8.820;2023-12-20T03:23:58;4.30;99.90
7384;DHT22;3733;47.994;8.820;2023-12-20T03:26:23;4.30;99.90
7384;DHT22;3733;47.994;8.820;2023-12-20T03:28:49;4.30;99.90
7384;DHT22;3733;47.994;8.820;2023-12-20T03:31:14;4.30;99.90
7384;DHT22;3733;47.994;8.820;2023-12-20T03:33:40;4.30;99.90
7384;DHT22;3733;47.994;8.820;2023-12-20T03:36:06;4.30;99.90
7384;DHT22;3733;47.994;8.820;2023-12-20T03:38:31;4.30;99.90
7384;DHT22;3733;47.994;8.820;2023-12-20T03:40:57;4.30;99.90
7384;DHT22;3733;47.994;8.820;2023-12-20T03:43:22;4.30;99.90
7384;DHT22;3733;47.994;8.820;2023-12-20T03:45:48;4.30;99.90
7384;DHT22;3733;47.994;8.820;2023-12-20T03:48:14;4.30;99.90
7384;DHT22;3733;47.994;8.820;2023-12-20T03:50:39;4.30;99.90
7384;DHT22;3733;47.994;8.820;2023-12-20T03:53:05;4.30;99.90
7384;DHT22;3733;47.994;8.820;2023-12-20T03:55:30;4.30;99.90
7384;DHT22;3733;47.994;8.820;2023-12-20T03:57:56;4.30;99.90
7384;DHT22;3733;47.994;8.820;2023-12-20T04:00:21;4.30;99.90
7384;DHT22;3733;47.994;8.820;2023-12-20T04:02:47;4.30;99.90
7384;DHT22;3733;47.994;8.820;2023-12-20T04:05:13;4.30;99.90
7384;DHT22;3733;47.994;8.820;2023-12-20T04:07:38;4.30;99.90
7384;DHT22;3733;47.994;8.820;2023-12-20T04:10:05;4.30;99.90
7384;DHT22;3733;47.994;8.820;2023-12-20T04:12:31;4.30;99.90
7384;DHT22;3733;47.994;8.820;2023-12-20T04:14:57;4.40;99.90
7384;DHT22;3733;47.994;8.820;2023-12-20T04:17:22;4.40;99.90
7384;DHT22;3733;47.994;8.820;2023-12-20T04:19:48;4.40;99.90
7384;DHT22;3733;47.994;8.820;2023-12-20T04:22:14;4.40;99.90
7384;DHT22;3733;47.994;8.820;2023-12-20T04:24:40;4.40;99.90
7384;DHT22;3733;47.994;8.820;2023-12-20T04:27:07;4.40;99.90
7384;DHT22;3733;47.994;8.820;2023-12-20T04:29:33;4.40;99.90
7384;DHT22;3733;47.994;8.820;2023-12-20T04:31:59;4.30;99.90
7384;DHT22;3733;47.994;8.820;2023-12-20T04:34:25;4.30;99.90
7384;DHT22;3733;47.994;8.820;2023-12-20T04:36:51;4.30;99.90
7384;DHT22;3733;47.994;8.820;2023-12-20T04:39:16;4.30;99.90
7384;DHT22;3733;47.994;8.820;2023-12-20T04:41:42;4.30;99.90
7384;DHT22;3733;47.994;8.820;2023-12-20T04:44:08;4.30;99.90
7384;DHT22;3733;47.994;8.820;2023-12-20T04:46:33;4.30;99.90
7384;DHT22;3733;47.994;8.820;2023-12-20T04:48:59;4.30;99.90
7384;DHT22;3733;47.994;8.820;2023-12-20T04:51:24;4.30;99.90
7384;DHT22;3733;47.994;8.820;2023-12-20T04:53:50;4.30;99.90
7384;DHT22;3733;47.994;8.820;2023-12-20T04:56:15;4.30;99.90
7384;DHT22;3733;47.994;8.820;2023-12-20T04:58:42;4.30;99.90
7384;DHT22;3733;47.994;8.820;2023-12-20T05:01:09;4.20;99.90
7384;DHT22;3733;47.994;8.820;2023-12-20T05:03:35;4.30;99.90
7384;DHT22;3733;47.994;8.820;2023-12-20T05:06:01;4.30;99.90
7384;DHT22;3733;47.994;8.820;2023-12-20T05:08:26;4.30;99.90
7384;DHT22;3733;47.994;8.820;2023-12-20T05:10:54;4.20;99.90
7384;DHT22;3733;47.994;8.820;2023-12-20T05:13:20;4.30;99.90
7384;DHT22;3733;47.994;8.820;2023-12-20T05:15:45;4.20;99.90
7384;DHT22;3733;47.994;8.820;2023-12-20T05:18:12;4.30;99.90
7384;DHT22;3733;47.994;8.820;2023-12-20T05:20:38;4.30;99.90
7384;DHT22;3733;47.994;8.820;2023-12-20T05:23:04;4.20;99.90
7384;DHT22;3733;47.994;8.820;2023-12-20T05:25:29;4.30;99.90
7384;DHT22;3733;47.994;8.820;2023-12-20T05:27:55;4.20;99.90
7384;DHT22;3733;47.994;8.820;2023-12-20T05:30:21;4.20;99.90
7384;DHT22;3733;47.994;8.820;2023-12-20T05:32:47;4.20;99.90
7384;DHT22;3733;47.994;8.820;2023-12-20T05:35:13;4.20;99.90
7384;DHT22;3733;47.994;8.820;2023-12-20T05:37:38;4.20;99.90
7384;DHT22;3733;47.994;8.820;2023-12-20T05:40:04;4.10;99.90
7384;DHT22;3733;47.994;8.820;2023-12-20T05:42:30;4.20;99.90
7384;DHT22;3733;47.994;8.820;2023-12-20T05:44:56;4.10;99.90
7384;DHT22;3733;47.994;8.820;2023-12-20T05:47:21;4.10;99.90
7384;DHT22;3733;47.994;8.820;2023-12-20T05:49:47;4.10;99.90
7384;DHT22;3733;47.994;8.820;2023-12-20T05:52:12;4.10;99.90
7384;DHT22;3733;47.994;8.820;2023-12-20T05:54:38;4.10;99.90
7384;DHT22;3733;47.994;8.820;2023-12-20T05:57:04;4.10;99.90
7384;DHT22;3733;47.994;8.820;2023-12-20T05:59:29;4.10;99.90
7384;DHT22;3733;47.994;8.820;2023-12-20T06:01:55;4.10;99.90
7384;DHT22;3733;47.994;8.820;2023-12-20T06:04:20;4.10;99.90
7384;DHT22;3733;47.994;8.820;2023-12-20T06:06:46;4.10;99.90
7384;DHT22;3733;47.994;8.820;2023-12-20T06:09:12;4.10;99.90
7384;DHT22;3733;47.994;8.820;2023-12-20T06:11:38;4.10;99.90
7384;DHT22;3733;47.994;8.820;2023-12-20T06:14:03;4.10;99.90
7384;DHT22;3733;47.994;8.820;2023-12-20T06:16:29;4.10;99.90
7384;DHT22;3733;47.994;8.820;2023-12-20T06:18:54;4.10;99.90
7384;DHT22;3733;47.994;8.820;2023-12-20T06:21:20;4.10;99.90
7384;DHT22;3733;47.994;8.820;2023-12-20T06:23:46;4.10;99.90
7384;DHT22;3733;47.994;8.820;2023-12-20T06:26:11;4.10;99.90
7384;DHT22;3733;47.994;8.820;2023-12-20T06:28:37;4.10;99.90
7384;DHT22;3733;47.994;8.820;2023-12-20T06:31:03;4.10;99.90
7384;DHT22;3733;47.994;8.820;2023-12-20T06:33:29;4.10;99.90
7384;DHT22;3733;47.994;8.820;2023-12-20T06:35:56;4.10;99.90
7384;DHT22;3733;47.994;8.820;2023-12-20T06:38:22;4.10;99.90
7384;DHT22;3733;47.994;8.820;2023-12-20T06:40:48;4.10;99.90
7384;DHT22;3733;47.994;8.820;2023-12-20T06:43:14;4.10;99.90
7384;DHT22;3733;47.994;8.820;2023-12-20T06:45:39;4.00;99.90
7384;DHT22;3733;47.994;8.820;2023-12-20T06:48:06;4.10;99.90
7384;DHT22;3733;47.994;8.820;2023-12-20T06:50:31;4.00;99.90
7384;DHT22;3733;47.994;8.820;2023-12-20T06:52:57;4.00;99.90
7384;DHT22;3733;47.994;8.820;2023-12-20T06:55:22;4.00;99.90
7384;DHT22;3733;47.994;8.820;2023-12-20T06:57:48;4.00;99.90
7384;DHT22;3733;47.994;8.820;2023-12-20T07:00:14;4.00;99.90
7384;DHT22;3733;47.994;8.820;2023-12-20T07:02:40;4.00;99.90
7384;DHT22;3733;47.994;8.820;2023-12-20T07:05:06;4.00;99.90
7384;DHT22;3733;47.994;8.820;2023-12-20T07:07:32;4.00;99.90
7384;DHT22;3733;47.994;8.820;2023-12-20T07:09:57;4.00;99.90
7384;DHT22;3733;47.994;8.820;2023-12-20T07:12:23;4.00;99.90
7384;DHT22;3733;47.994;8.820;2023-12-20T07:14:48;4.00;99.90
7384;DHT22;3733;47.994;8.820;2023-12-20T07:17:14;4.00;99.90
7384;DHT22;3733;47.994;8.820;2023-12-20T07:19:41;4.00;99.90
7384;DHT22;3733;47.994;8.820;2023-12-20T07:22:07;4.00;99.90
7384;DHT22;3733;47.994;8.820;2023-12-20T07:24:33;4.00;99.90
7384;DHT22;3733;47.994;8.820;2023-12-20T07:27:02;4.00;99.90
7384;DHT22;3733;47.994;8.820;2023-12-20T07:29:27;3.90;99.90
7384;DHT22;3733;47.994;8.820;2023-12-20T07:31:53;3.90;99.90
7384;DHT22;3733;47.994;8.820;2023-12-20T07:34:20;3.90;99.90
7384;DHT22;3733;47.994;8.820;2023-12-20T07:36:46;3.90;99.90
7384;DHT22;3733;47.994;8.820;2023-12-20T07:39:12;3.90;99.90
7384;DHT22;3733;47.994;8.820;2023-12-20T07:41:38;3.90;99.90
7384;DHT22;3733;47.994;8.820;2023-12-20T07:44:04;3.90;99.90
7384;DHT22;3733;47.994;8.820;2023-12-20T07:46:30;3.90;99.90
7384;DHT22;3733;47.994;8.820;2023-12-20T07:48:56;3.90;99.90
7384;DHT22;3733;47.994;8.820;2023-12-20T07:51:21;3.90;99.90
7384;DHT22;3733;47.994;8.820;2023-12-20T07:53:47;3.90;99.90
7384;DHT22;3733;47.994;8.820;2023-12-20T07:56:17;3.90;99.90
7384;DHT22;3733;47.994;8.820;2023-12-20T07:58:43;3.90;99.90
7384;DHT22;3733;47.994;8.820;2023-12-20T08:01:09;4.00;99.90
7384;DHT22;3733;47.994;8.820;2023-12-20T08:03:35;4.00;99.90
7384;DHT22;3733;47.994;8.820;2023-12-20T08:06:00;4.00;99.90
7384;DHT22;3733;47.994;8.820;2023-12-20T08:08:26;4.00;99.90
7384;DHT22;3733;47.994;8.820;2023-12-20T08:10:51;4.10;99.90
7384;DHT22;3733;47.994;8.820;2023-12-20T08:13:17;4.10;99.90
7384;DHT22;3733;47.994;8.820;2023-12-20T08:15:42;4.10;99.90
7384;DHT22;3733;47.994;8.820;2023-12-20T08:18:08;4.10;99.90
7384;DHT22;3733;47.994;8.820;2023-12-20T08:20:34;4.10;99.90
7384;DHT22;3733;47.994;8.820;2023-12-20T08:22:59;4.10;99.90
7384;DHT22;3733;47.994;8.820;2023-12-20T08:25:25;4.10;99.90
7384;DHT22;3733;47.994;8.820;2023-12-20T08:27:51;4.10;99.90
7384;DHT22;3733;47.994;8.820;2023-12-20T08:30:17;4.20;99.90
7384;DHT22;3733;47.994;8.820;2023-12-20T08:32:46;4.20;99.90
7384;DHT22;3733;47.994;8.820;2023-12-20T08:35:11;4.20;99.90
7384;DHT22;3733;47.994;8.820;2023-12-20T08:37:37;4.20;99.90
7384;DHT22;3733;47.994;8.820;2023-12-20T08:40:03;4.20;99.90
7384;DHT22;3733;47.994;8.820;2023-12-20T08:42:28;4.20;99.90
7384;DHT22;3733;47.994;8.820;2023-12-20T08:44:57;4.30;99.90
7384;DHT22;3733;47.994;8.820;2023-12-20T08:47:24;4.30;99.90
7384;DHT22;3733;47.994;8.820;2023-12-20T08:49:49;4.30;99.90
7384;DHT22;3733;47.994;8.820;2023-12-20T08:52:15;4.30;99.90
7384;DHT22;3733;47.994;8.820;2023-12-20T08:54:41;4.30;99.90
7384;DHT22;3733;47.994;8.820;2023-12-20T08:57:06;4.30;99.90
7384;DHT22;3733;47.994;8.820;2023-12-20T08:59:32;4.30;99.90
7384;DHT22;3733;47.994;8.820;2023-12-20T09:01:58;4.40;99.90
7384;DHT22;3733;47.994;8.820;2023-12-20T09:04:24;4.40;99.90
7384;DHT22;3733;47.994;8.820;2023-12-20T09:06:50;4.40;99.90
7384;DHT22;3733;47.994;8.820;2023-12-20T09:09:15;4.50;99.90
7384;DHT22;3733;47.994;8.820;2023-12-20T09:11:41;4.50;99.90
7384;DHT22;3733;47.994;8.820;2023-12-20T09:14:07;4.50;99.90
7384;DHT22;3733;47.994;8.820;2023-12-20T09:16:33;4.60;99.90
7384;DHT22;3733;47.994;8.820;2023-12-20T09:18:59;4.60;99.90
7384;DHT22;3733;47.994;8.820;2023-12-20T09:21:24;4.60;99.90
7384;DHT22;3733;47.994;8.820;2023-12-20T09:23:50;4.60;99.90
7384;DHT22;3733;47.994;8.820;2023-12-20T09:26:15;4.60;99.90
7384;DHT22;3733;47.994;8.820;2023-12-20T09:28:41;4.70;99.90
7384;DHT22;3733;47.994;8.820;2023-12-20T09:31:07;4.70;99.90
7384;DHT22;3733;47.994;8.820;2023-12-20T09:33:35;4.70;99.90
7384;DHT22;3733;47.994;8.820;2023-12-20T09:36:00;4.80;99.90
7384;DHT22;3733;47.994;8.820;2023-12-20T09:38:26;4.80;99.90
7384;DHT22;3733;47.994;8.820;2023-12-20T09:40:52;4.80;99.90
7384;DHT22;3733;47.994;8.820;2023-12-20T09:43:20;4.80;99.90
7384;DHT22;3733;47.994;8.820;2023-12-20T09:45:47;4.90;99.90
7384;DHT22;3733;47.994;8.820;2023-12-20T09:48:13;4.90;99.90
7384;DHT22;3733;47.994;8.820;2023-12-20T09:50:40;5.00;99.90
7384;DHT22;3733;47.994;8.820;2023-12-20T09:53:09;5.10;99.90
7384;DHT22;3733;47.994;8.820;2023-12-20T09:55:36;5.20;99.90
7384;DHT22;3733;47.994;8.820;2023-12-20T09:58:02;5.20;99.90
7384;DHT22;3733;47.994;8.820;2023-12-20T10:00:28;5.30;99.90
7384;DHT22;3733;47.994;8.820;2023-12-20T10:02:57;5.30;99.90
7384;DHT22;3733;47.994;8.820;2023-12-20T10:05:30;5.30;99.90
7384;DHT22;3733;47.994;8.820;2023-12-20T10:07:56;5.30;99.90
7384;DHT22;3733;47.994;8.820;2023-12-20T10:10:23;5.30;99.90
7384;DHT22;3733;47.994;8.820;2023-12-20T10:13:06;5.30;99.90
7384;DHT22;3733;47.994;8.820;2023-12-20T10:15:35;5.40;99.90
7384;DHT22;3733;47.994;8.820;2023-12-20T10:18:02;5.40;99.90
7384;DHT22;3733;47.994;8.820;2023-12-20T10:20:29;5.50;99.90
7384;DHT22;3733;47.994;8.820;2023-12-20T10:22:56;5.60;99.90
7384;DHT22;3733;47.994;8.820;2023-12-20T10:25:22;5.70;99.90
7384;DHT22;3733;47.994;8.820;2023-12-20T10:27:49;5.70;99.90
7384;DHT22;3733;47.994;8.820;2023-12-20T10:30:15;5.70;99.90
7384;DHT22;3733;47.994;8.820;2023-12-20T10:32:40;5.70;99.90
7384;DHT22;3733;47.994;8.820;2023-12-20T10:35:06;5.70;99.90
7384;DHT22;3733;47.994;8.820;2023-12-20T10:37:35;5.80;99.90
7384;DHT22;3733;47.994;8.820;2023-12-20T10:40:03;5.80;99.90
7384;DHT22;3733;47.994;8.820;2023-12-20T10:42:29;5.70;99.90
7384;DHT22;3733;47.994;8.820;2023-12-20T10:44:56;5.60;99.90
7384;DHT22;3733;47.994;8.820;2023-12-20T10:47:22;5.40;99.90
7384;DHT22;3733;47.994;8.820;2023-12-20T10:49:51;5.40;99.90
7384;DHT22;3733;47.994;8.820;2023-12-20T10:52:17;5.30;99.90
7384;DHT22;3733;47.994;8.820;2023-12-20T10:54:44;5.20;99.90
7384;DHT22;3733;47.994;8.820;2023-12-20T10:57:10;5.10;99.90
7384;DHT22;3733;47.994;8.820;2023-12-20T10:59:37;5.00;99.90
7384;DHT22;3733;47.994;8.820;2023-12-20T11:02:06;4.90;99.90
7384;DHT22;3733;47.994;8.820;2023-12-20T11:04:47;4.90;99.90
7384;DHT22;3733;47.994;8.820;2023-12-20T11:07:29;4.90;99.90
7384;DHT22;3733;47.994;8.820;2023-12-20T11:10:10;4.80;99.90
7384;DHT22;3733;47.994;8.820;2023-12-20T11:13:05;4.90;99.90
7384;DHT22;3733;47.994;8.820;2023-12-20T11:15:35;4.90;99.90
7384;DHT22;3733;47.994;8.820;2023-12-20T11:18:02;5.00;99.90
7384;DHT22;3733;47.994;8.820;2023-12-20T11:20:39;5.10;99.90
7384;DHT22;3733;47.994;8.820;2023-12-20T11:23:06;5.10;99.90
7384;DHT22;3733;47.994;8.820;2023-12-20T11:25:52;5.20;99.90
7384;DHT22;3733;47.994;8.820;2023-12-20T11:28:22;5.20;99.90
7384;DHT22;3733;47.994;8.820;2023-12-20T11:30:54;5.10;99.90
7384;DHT22;3733;47.994;8.820;2023-12-20T11:33:24;5.10;99.90
7384;DHT22;3733;47.994;8.820;2023-12-20T11:35:50;5.10;99.90
7384;DHT22;3733;47.994;8.820;2023-12-20T11:38:16;5.00;99.90
7384;DHT22;3733;47.994;8.820;2023-12-20T11:40:42;5.00;99.90
7384;DHT22;3733;47.994;8.820;2023-12-20T11:43:09;5.00;99.90
7384;DHT22;3733;47.994;8.820;2023-12-20T11:45:35;4.90;99.90
7384;DHT22;3733;47.994;8.820;2023-12-20T11:48:04;5.00;99.90
7384;DHT22;3733;47.994;8.820;2023-12-20T11:50:29;5.00;99.90
7384;DHT22;3733;47.994;8.820;2023-12-20T11:52:56;5.10;99.90
7384;DHT22;3733;47.994;8.820;2023-12-20T11:55:23;5.10;99.90
7384;DHT22;3733;47.994;8.820;2023-12-20T11:57:51;5.10;99.90
7384;DHT22;3733;47.994;8.820;2023-12-20T12:00:18;5.20;99.90
7384;DHT22;3733;47.994;8.820;2023-12-20T12:02:43;5.20;99.90
7384;DHT22;3733;47.994;8.820;2023-12-20T12:05:20;5.30;99.90
7384;DHT22;3733;47.994;8.820;2023-12-20T12:07:45;5.20;99.90
7384;DHT22;3733;47.994;8.820;2023-12-20T12:10:11;5.20;99.90
7384;DHT22;3733;47.994;8.820;2023-12-20T12:12:36;5.20;99.90
7384;DHT22;3733;47.994;8.820;2023-12-20T12:15:02;5.20;99.90
7384;DHT22;3733;47.994;8.820;2023-12-20T12:17:28;5.30;99.90
7384;DHT22;3733;47.994;8.820;2023-12-20T12:20:02;5.30;99.90
7384;DHT22;3733;47.994;8.820;2023-12-20T12:22:28;5.30;99.90
7384;DHT22;3733;47.994;8.820;2023-12-20T12:24:54;5.30;99.90
7384;DHT22;3733;47.994;8.820;2023-12-20T12:27:20;5.40;99.90
7384;DHT22;3733;47.994;8.820;2023-12-20T12:30:05;5.40;99.90
7384;DHT22;3733;47.994;8.820;2023-12-20T12:32:32;5.40;99.90
7384;DHT22;3733;47.994;8.820;2023-12-20T12:34:58;5.40;99.90
7384;DHT22;3733;47.994;8.820;2023-12-20T12:37:24;5.30;99.90
7384;DHT22;3733;47.994;8.820;2023-12-20T12:39:50;5.30;99.90
7384;DHT22;3733;47.994;8.820;2023-12-20T12:42:15;5.20;99.90
7384;DHT22;3733;47.994;8.820;2023-12-20T12:44:41;5.30;99.90
7384;DHT22;3733;47.994;8.820;2023-12-20T12:47:06;5.30;99.90
7384;DHT22;3733;47.994;8.820;2023-12-20T12:49:33;5.40;99.90
7384;DHT22;3733;47.994;8.820;2023-12-20T12:51:59;5.40;99.90
7384;DHT22;3733;47.994;8.820;2023-12-20T12:54:24;5.40;99.90
7384;DHT22;3733;47.994;8.820;2023-12-20T12:56:50;5.30;99.90
7384;DHT22;3733;47.994;8.820;2023-12-20T12:59:16;5.20;96.90
7384;DHT22;3733;47.994;8.820;2023-12-20T13:01:42;5.10;95.60
7384;DHT22;3733;47.994;8.820;2023-12-20T13:04:08;5.00;97.10
7384;DHT22;3733;47.994;8.820;2023-12-20T13:06:37;5.00;97.00
7384;DHT22;3733;47.994;8.820;2023-12-20T13:09:03;4.90;96.90
7384;DHT22;3733;47.994;8.820;2023-12-20T13:11:30;4.90;95.30
7384;DHT22;3733;47.994;8.820;2023-12-20T13:13:57;4.80;95.00
7384;DHT22;3733;47.994;8.820;2023-12-20T13:16:23;4.70;96.40
7384;DHT22;3733;47.994;8.820;2023-12-20T13:18:50;4.70;95.40
7384;DHT22;3733;47.994;8.820;2023-12-20T13:21:15;4.60;95.70
7384;DHT22;3733;47.994;8.820;2023-12-20T13:23:42;4.60;93.60
7384;DHT22;3733;47.994;8.820;2023-12-20T13:26:07;4.60;94.90
7384;DHT22;3733;47.994;8.820;2023-12-20T13:28:33;4.60;95.80
7384;DHT22;3733;47.994;8.820;2023-12-20T13:30:59;4.50;96.80
7384;DHT22;3733;47.994;8.820;2023-12-20T13:33:25;4.40;98.20
7384;DHT22;3733;47.994;8.820;2023-12-20T13:35:51;4.40;99.00
7384;DHT22;3733;47.994;8.820;2023-12-20T13:38:17;4.40;99.40
7384;DHT22;3733;47.994;8.820;2023-12-20T13:40:42;4.30;99.80
7384;DHT22;3733;47.994;8.820;2023-12-20T13:43:08;4.30;99.90
7384;DHT22;3733;47.994;8.820;2023-12-20T13:45:35;4.30;99.90
7384;DHT22;3733;47.994;8.820;2023-12-20T13:48:01;4.20;99.90
7384;DHT22;3733;47.994;8.820;2023-12-20T13:50:26;4.20;99.90
7384;DHT22;3733;47.994;8.820;2023-12-20T13:52:52;4.20;99.90
7384;DHT22;3733;47.994;8.820;2023-12-20T13:55:18;4.10;99.90
7384;DHT22;3733;47.994;8.820;2023-12-20T13:57:47;4.20;99.90
7384;DHT22;3733;47.994;8.820;2023-12-20T14:00:14;4.20;99.90
7384;DHT22;3733;47.994;8.820;2023-12-20T14:02:41;4.20;99.90
7384;DHT22;3733;47.994;8.820;2023-12-20T14:05:07;4.20;99.90
7384;DHT22;3733;47.994;8.820;2023-12-20T14:07:33;4.20;99.90
7384;DHT22;3733;47.994;8.820;2023-12-20T14:09:58;4.20;99.90
7384;DHT22;3733;47.994;8.820;2023-12-20T14:12:25;4.20;99.90
7384;DHT22;3733;47.994;8.820;2023-12-20T14:14:50;4.20;99.90
7384;DHT22;3733;47.994;8.820;2023-12-20T14:17:17;4.20;99.90
7384;DHT22;3733;47.994;8.820;2023-12-20T14:19:43;4.20;99.90
7384;DHT22;3733;47.994;8.820;2023-12-20T14:22:09;4.20;99.90
7384;DHT22;3733;47.994;8.820;2023-12-20T14:24:35;4.20;99.90
7384;DHT22;3733;47.994;8.820;2023-12-20T14:27:01;4.20;99.90
7384;DHT22;3733;47.994;8.820;2023-12-20T14:29:27;4.10;99.90
7384;DHT22;3733;47.994;8.820;2023-12-20T14:31:53;4.10;99.90
7384;DHT22;3733;47.994;8.820;2023-12-20T14:34:18;4.00;99.90
7384;DHT22;3733;47.994;8.820;2023-12-20T14:36:44;4.00;99.90
7384;DHT22;3733;47.994;8.820;2023-12-20T14:39:09;4.00;99.90
7384;DHT22;3733;47.994;8.820;2023-12-20T14:41:38;4.00;99.90
7384;DHT22;3733;47.994;8.820;2023-12-20T14:44:05;3.90;99.90
7384;DHT22;3733;47.994;8.820;2023-12-20T14:46:31;3.90;99.90
7384;DHT22;3733;47.994;8.820;2023-12-20T14:48:56;3.90;99.90
7384;DHT22;3733;47.994;8.820;2023-12-20T14:51:22;3.90;99.90
7384;DHT22;3733;47.994;8.820;2023-12-20T14:53:48;3.90;99.90
7384;DHT22;3733;47.994;8.820;2023-12-20T14:56:13;4.00;99.90
7384;DHT22;3733;47.994;8.820;2023-12-20T14:58:40;4.00;99.90
7384;DHT22;3733;47.994;8.820;2023-12-20T15:01:06;4.10;99.90
7384;DHT22;3733;47.994;8.820;2023-12-20T15:03:34;4.00;99.90
7384;DHT22;3733;47.994;8.820;2023-12-20T15:06:00;4.10;99.90
7384;DHT22;3733;47.994;8.820;2023-12-20T15:08:26;4.00;99.90
7384;DHT22;3733;47.994;8.820;2023-12-20T15:10:51;4.00;99.90
7384;DHT22;3733;47.994;8.820;2023-12-20T15:13:17;4.00;99.90
7384;DHT22;3733;47.994;8.820;2023-12-20T15:15:42;4.00;99.90
7384;DHT22;3733;47.994;8.820;2023-12-20T15:18:08;4.00;99.90
7384;DHT22;3733;47.994;8.820;2023-12-20T15:20:34;4.00;99.90
7384;DHT22;3733;47.994;8.820;2023-12-20T15:23:01;4.00;99.90
7384;DHT22;3733;47.994;8.820;2023-12-20T15:25:32;4.00;99.90
7384;DHT22;3733;47.994;8.820;2023-12-20T15:27:58;4.00;99.90
7384;DHT22;3733;47.994;8.820;2023-12-20T15:30:24;4.00;99.90
7384;DHT22;3733;47.994;8.820;2023-12-20T15:32:50;3.90;99.90
7384;DHT22;3733;47.994;8.820;2023-12-20T15:35:16;3.90;99.90
7384;DHT22;3733;47.994;8.820;2023-12-20T15:37:42;3.90;99.90
7384;DHT22;3733;47.994;8.820;2023-12-20T15:40:08;3.90;99.90
7384;DHT22;3733;47.994;8.820;2023-12-20T15:42:38;3.90;99.90
7384;DHT22;3733;47.994;8.820;2023-12-20T15:45:05;3.90;99.90
7384;DHT22;3733;47.994;8.820;2023-12-20T15:47:31;3.90;99.90
7384;DHT22;3733;47.994;8.820;2023-12-20T15:49:56;3.90;99.90
7384;DHT22;3733;47.994;8.820;2023-12-20T15:52:23;3.80;99.90
7384;DHT22;3733;47.994;8.820;2023-12-20T15:54:48;3.90;99.90
7384;DHT22;3733;47.994;8.820;2023-12-20T15:57:14;3.80;99.90
7384;DHT22;3733;47.994;8.820;2023-12-20T15:59:43;3.80;99.90
7384;DHT22;3733;47.994;8.820;2023-12-20T16:02:08;3.80;99.90
7384;DHT22;3733;47.994;8.820;2023-12-20T16:04:34;3.80;99.90
7384;DHT22;3733;47.994;8.820;2023-12-20T16:07:00;3.70;99.90
7384;DHT22;3733;47.994;8.820;2023-12-20T16:09:25;3.70;99.90
7384;DHT22;3733;47.994;8.820;2023-12-20T16:11:51;3.70;99.90